Terminal Aerodrome Forecast
Issued by NWS Sterling, VA

Home | Current Version | Previous Version | Text Only | Print | Product List | Glossary On
Versions: 1 2 3 4 5 6 7 8 9 10 11 12 13 14 15 16 17 18 19 20 21 22 23
000
FTUS41 KLWX 020536
TAFIAD
TAF
KIAD 020536Z 0206/0312 26004KT 1/2SM FG OVC002
     FM020900 25006KT P6SM OVC006
     FM021100 29004KT P6SM OVC050
     FM021300 31009KT P6SM BKN150
     FM021800 31012G25KT P6SM SCT250
     FM030000 31008KT P6SM SCT200
     FM030600 VRB04KT P6SM BKN200=

USA.gov is the U.S. government's official web portal to all federal, state and local government web resources and services.